Suffolk, Texas
Current Conditions -  °F | °C
As of 1:15 PM on Sunday 21 Dec 2014 (Local Time) from KOSA Reporting Station
Overcast Overcast  
Wind Chill: 51°   Ceiling: 2200
Heat Index: 51°   Visibility: 10mi
Dew Point: 42°   Wind: 7mph
Humidity: 72%   Direction: 160°SSE
Pressure: 30.02"   Gusts: NA
Location:  32.7353°N, 94.9492°W
Report Text: KOSA 211915Z AUTO 16006KT 10SM OVC022 11/06 A3002 RMK AO1 T01050057
Loading
Personal Weather Stations






























Interactive Weather Map New forecast layout! Learn more

10-Day Weather Forecast

Advertisements
Track Severe Weather on mobile